This is the latest recevied weather packets stored in our database for station/object KF6ILA. If no packets are shown the sender has not sent any weather packets the latest 10 day(s).
| Time | Temp. | Humidity | Pressure | Rain* | Wind** | Luminosity | Snow |
|---|---|---|---|---|---|---|---|
| 1787530529 | 32.78° C | 26% | 1017.4 hPa | 0 mm | - | 454 W/m² | - |
| 1787530232 | 32.78° C | 27% | 1017.3 hPa | 0 mm | - | 457 W/m² | - |
| 1787529935 | 32.78° C | 27% | 1017.4 hPa | 0 mm | - | 464 W/m² | - |
| 1787529044 | 33.33° C | 26% | 1017.3 hPa | 0 mm | - | 515 W/m² | - |
| 1787528747 | 33.33° C | 26% | 1016.4 hPa | 0 mm | - | 534 W/m² | - |
| 1787528450 | 33.33° C | 26% | 1016.5 hPa | 0 mm | - | 550 W/m² | - |
| 1787528153 | 33.33° C | 26% | 1016.4 hPa | 0 mm | - | 568 W/m² | - |
| 1787527559 | 33.33° C | 26% | 1016.4 hPa | 0 mm | - | 603 W/m² | - |
| 1787527262 | 33.33° C | 26% | 1016.6 hPa | 0 mm | - | 619 W/m² | - |
| 1787526668 | 32.78° C | 27% | 1016.7 hPa | 0 mm | - | 661 W/m² | - |
| 1787526371 | 32.78° C | 27% | 1016.8 hPa | 0 mm | - | 487 W/m² | - |
| 1787526074 | 32.78° C | 28% | 1016.7 hPa | 0 mm | - | 341 W/m² | - |
| 1787525777 | 32.22° C | 27% | 1016.8 hPa | 0 mm | - | 341 W/m² | - |
| 1787525480 | 32.78° C | 27% | 1017 hPa | 0 mm | - | 823 W/m² | - |
| 1787524886 | 31.67° C | 27% | 1017.7 hPa | 0 mm | - | 290 W/m² | - |
| 1787524589 | 32.22° C | 26% | 1017.8 hPa | 0 mm | - | 338 W/m² | - |
| 1787524292 | 32.22° C | 27% | 1017.8 hPa | 0 mm | - | 316 W/m² | - |
| 1787523995 | 32.22° C | 27% | 1017.7 hPa | 0 mm | - | 338 W/m² | - |
| 1787522807 | 32.22° C | 29% | 1018.2 hPa | 0 mm | - | 427 W/m² | - |
| 1787522213 | 32.22° C | 30% | 1018.1 hPa | 0 mm | - | 388 W/m² | - |
| 1787521619 | 32.78° C | 29% | 1018.2 hPa | 0 mm | - | 401 W/m² | - |
| 1787521322 | 33.33° C | 29% | 1018.2 hPa | 0 mm | - | 512 W/m² | - |
| 1787521025 | 33.89° C | 28% | 1018.3 hPa | 0 mm | - | 496 W/m² | - |
| 1787520431 | 35.56° C | 27% | 1018.3 hPa | 0 mm | - | 1005 W/m² | - |
| 1787520134 | 35.56° C | 28% | 1018.2 hPa | 0 mm | - | 907 W/m² | - |
* Rain latest hour (hover to see other rain measurements)
** Current wind speed in m/s (hover to see current wind gust speed)